Time;durP1;ratioP1;P1;durP2;ratioP2;P2;SDS_P1;SDS_P2;PMS_P1;PMS_P2;Temp;Humidity;BMP_temperature;BMP_pressure;BME280_temperature;BME280_humidity;BME280_pressure;Samples;Min_cycle;Max_cycle;Signal;HPM_P1;HPM_P2
2023/10/05 00:02:05;;;;;;;3.83;2.23;;;;;;;;;;5069339;28;20233;-63
2023/10/05 00:04:40;;;;;;;2.67;2.33;;;;;;;;;;5069360;28;20256;-64
2023/10/05 00:07:07;;;;;;;4.80;2.53;;;;;;;;;;5069372;28;20312;-63
2023/10/05 00:09:36;;;;;;;4.60;2.43;;;;;;;;;;5069381;28;20230;-63
2023/10/05 00:12:05;;;;;;;3.17;2.80;;;;;;;;;;5069044;28;20760;-64
2023/10/05 00:14:35;;;;;;;6.93;2.97;;;;;;;;;;5068605;28;20657;-63
2023/10/05 00:17:04;;;;;;;2.83;2.40;;;;;;;;;;5069020;28;20234;-63
2023/10/05 00:19:35;;;;;;;3.20;2.10;;;;;;;;;;5066423;28;20223;-64
2023/10/05 00:22:02;;;;;;;4.77;2.40;;;;;;;;;;5068427;28;20247;-63
2023/10/05 00:24:35;;;;;;;3.77;2.23;;;;;;;;;;5068276;28;20208;-63
2023/10/05 00:27:04;;;;;;;7.40;2.90;;;;;;;;;;5068743;28;20203;-63
2023/10/05 00:29:39;;;;;;;4.83;2.60;;;;;;;;;;5065421;28;20203;-63
2023/10/05 00:32:12;;;;;;;3.63;2.67;;;;;;;;;;5066212;28;20890;-64
2023/10/05 00:34:40;;;;;;;6.23;2.80;;;;;;;;;;5063127;28;20207;-63
2023/10/05 00:37:08;;;;;;;4.50;2.90;;;;;;;;;;5067850;28;20559;-63
2023/10/05 00:39:37;;;;;;;10.07;2.47;;;;;;;;;;5068148;28;20229;-63
2023/10/05 00:42:08;;;;;;;8.17;2.67;;;;;;;;;;5068411;28;20586;-63
2023/10/05 00:44:36;;;;;;;2.17;2.07;;;;;;;;;;5068250;28;20229;-65
2023/10/05 00:47:06;;;;;;;3.00;2.67;;;;;;;;;;5064833;28;20232;-63
2023/10/05 00:49:42;;;;;;;6.77;2.73;;;;;;;;;;5068015;28;20289;-64
2023/10/05 00:52:14;;;;;;;4.23;3.00;;;;;;;;;;5068215;28;20207;-63
2023/10/05 00:54:44;;;;;;;6.70;3.00;;;;;;;;;;5068748;28;20632;-63
2023/10/05 00:57:15;;;;;;;5.40;3.33;;;;;;;;;;5068644;28;20215;-63
2023/10/05 00:59:44;;;;;;;3.43;2.43;;;;;;;;;;5068382;28;20459;-63
2023/10/05 01:02:16;;;;;;;5.03;2.97;;;;;;;;;;5067267;28;20314;-63
2023/10/05 01:04:56;;;;;;;2.30;2.10;;;;;;;;;;5068309;28;20833;-64
2023/10/05 01:07:49;;;;;;;3.43;2.60;;;;;;;;;;5068391;28;20222;-63
2023/10/05 01:10:28;;;;;;;6.73;3.27;;;;;;;;;;5061207;28;20376;-63
2023/10/05 01:12:57;;;;;;;3.33;2.37;;;;;;;;;;5067966;28;20210;-63
2023/10/05 01:15:30;;;;;;;4.70;3.40;;;;;;;;;;5066672;28;20423;-63
2023/10/05 01:17:59;;;;;;;7.43;3.30;;;;;;;;;;5067296;28;20268;-63
2023/10/05 01:20:28;;;;;;;5.70;3.10;;;;;;;;;;5067919;28;20230;-63
2023/10/05 01:22:57;;;;;;;8.73;2.63;;;;;;;;;;5067215;28;20294;-64
2023/10/05 01:25:27;;;;;;;7.60;3.70;;;;;;;;;;5068163;28;20195;-64
2023/10/05 01:27:54;;;;;;;7.83;3.60;;;;;;;;;;5067109;28;20199;-63
2023/10/05 01:30:22;;;;;;;5.13;3.47;;;;;;;;;;5067685;28;20256;-64
2023/10/05 01:32:50;;;;;;;9.10;3.63;;;;;;;;;;5067919;28;20235;-64
2023/10/05 01:35:18;;;;;;;8.40;3.70;;;;;;;;;;5064975;28;20677;-64
2023/10/05 01:37:46;;;;;;;6.37;3.47;;;;;;;;;;5067089;28;20294;-64
2023/10/05 01:40:20;;;;;;;6.20;3.93;;;;;;;;;;5064065;28;20231;-63
2023/10/05 01:42:48;;;;;;;11.17;6.37;;;;;;;;;;5066836;28;20480;-63
2023/10/05 01:45:16;;;;;;;7.07;3.50;;;;;;;;;;5067168;28;20242;-63
2023/10/05 01:47:45;;;;;;;6.40;3.97;;;;;;;;;;5067463;28;20604;-63
2023/10/05 01:50:18;;;;;;;5.13;3.90;;;;;;;;;;5067091;28;20202;-63
2023/10/05 01:52:49;;;;;;;10.13;3.90;;;;;;;;;;5067335;28;20890;-64
2023/10/05 01:55:18;;;;;;;8.63;4.47;;;;;;;;;;5067004;28;20219;-64
2023/10/05 01:57:45;;;;;;;8.80;3.90;;;;;;;;;;5066395;28;20251;-64
2023/10/05 02:00:19;;;;;;;9.43;4.40;;;;;;;;;;5066925;28;20403;-64
2023/10/05 02:02:48;;;;;;;9.30;4.70;;;;;;;;;;5066417;28;20605;-64
2023/10/05 02:05:15;;;;;;;9.33;4.60;;;;;;;;;;5066159;28;20625;-64
2023/10/05 02:07:42;;;;;;;7.83;4.47;;;;;;;;;;5063171;28;20207;-64
2023/10/05 02:10:10;;;;;;;5.27;4.13;;;;;;;;;;5059823;28;20207;-63
2023/10/05 02:12:39;;;;;;;10.00;4.60;;;;;;;;;;5063410;28;20692;-63
2023/10/05 02:15:12;;;;;;;7.30;4.27;;;;;;;;;;5066595;28;20213;-63
2023/10/05 02:17:46;;;;;;;8.03;4.43;;;;;;;;;;5066847;28;20203;-63
2023/10/05 02:20:25;;;;;;;11.37;4.53;;;;;;;;;;5066377;28;20351;-63
2023/10/05 02:22:53;;;;;;;10.60;4.40;;;;;;;;;;5066495;28;20222;-63
2023/10/05 02:25:24;;;;;;;9.73;4.67;;;;;;;;;;5066689;28;20207;-64
2023/10/05 02:27:52;;;;;;;11.87;4.90;;;;;;;;;;5065544;28;20202;-63
2023/10/05 02:30:27;;;;;;;12.63;5.10;;;;;;;;;;5066650;28;20692;-63
2023/10/05 02:32:58;;;;;;;10.13;4.30;;;;;;;;;;5066347;28;20205;-63
2023/10/05 02:35:29;;;;;;;13.73;5.00;;;;;;;;;;5066435;28;20202;-63
2023/10/05 02:37:58;;;;;;;10.00;5.23;;;;;;;;;;5065374;28;20202;-64
2023/10/05 02:40:35;;;;;;;10.00;4.60;;;;;;;;;;5066128;28;20234;-63
2023/10/05 02:43:05;;;;;;;6.50;4.33;;;;;;;;;;5066029;28;20226;-63
2023/10/05 02:45:32;;;;;;;12.60;4.90;;;;;;;;;;5065905;28;20262;-63
2023/10/05 02:48:05;;;;;;;11.63;5.00;;;;;;;;;;5066294;28;20289;-63
2023/10/05 02:50:37;;;;;;;9.03;5.13;;;;;;;;;;5060466;28;20202;-63
2023/10/05 02:53:06;;;;;;;9.70;5.17;;;;;;;;;;5064036;28;20297;-65
2023/10/05 02:55:36;;;;;;;13.27;5.93;;;;;;;;;;5062638;28;20234;-63
2023/10/05 02:58:04;;;;;;;7.53;4.60;;;;;;;;;;5065925;28;20506;-64
2023/10/05 03:00:34;;;;;;;10.07;4.70;;;;;;;;;;5065944;28;20223;-64
2023/10/05 03:03:04;;;;;;;11.30;5.30;;;;;;;;;;5066144;28;20203;-64
2023/10/05 03:05:32;;;;;;;11.63;5.23;;;;;;;;;;5065999;28;20305;-64
2023/10/05 03:07:59;;;;;;;7.80;5.03;;;;;;;;;;5065934;28;20665;-63
2023/10/05 03:10:27;;;;;;;8.70;5.13;;;;;;;;;;5065947;28;20195;-63
2023/10/05 03:12:54;;;;;;;9.30;5.03;;;;;;;;;;5065476;28;20249;-63
2023/10/05 03:15:27;;;;;;;8.73;4.93;;;;;;;;;;5065886;28;20290;-63
2023/10/05 03:17:56;;;;;;;11.17;5.37;;;;;;;;;;5065236;28;20665;-63
2023/10/05 03:20:25;;;;;;;13.23;5.30;;;;;;;;;;5065932;28;20223;-63
2023/10/05 03:22:55;;;;;;;8.13;4.63;;;;;;;;;;5065910;28;20238;-63
2023/10/05 03:25:23;;;;;;;10.37;5.57;;;;;;;;;;5065753;28;20860;-63
2023/10/05 03:27:50;;;;;;;9.33;4.87;;;;;;;;;;5065216;28;20199;-63
2023/10/05 03:30:17;;;;;;;17.10;5.47;;;;;;;;;;5065677;28;20202;-63
2023/10/05 03:32:48;;;;;;;7.93;4.57;;;;;;;;;;5065414;28;20363;-63
2023/10/05 03:35:22;;;;;;;10.33;4.60;;;;;;;;;;5065704;28;20199;-63
2023/10/05 03:37:50;;;;;;;8.37;4.80;;;;;;;;;;5065031;28;20203;-63
2023/10/05 03:40:22;;;;;;;5.20;4.70;;;;;;;;;;5065341;28;20223;-63
2023/10/05 03:42:57;;;;;;;7.57;5.23;;;;;;;;;;5065571;28;20229;-63
2023/10/05 03:45:24;;;;;;;10.37;5.20;;;;;;;;;;5064316;28;20242;-63
2023/10/05 03:47:53;;;;;;;13.03;5.10;;;;;;;;;;5065552;28;20681;-63
2023/10/05 03:50:21;;;;;;;7.87;4.63;;;;;;;;;;5061732;28;20377;-63
2023/10/05 03:52:48;;;;;;;8.17;5.20;;;;;;;;;;5065684;28;20207;-64
2023/10/05 03:55:18;;;;;;;9.23;5.00;;;;;;;;;;5065226;28;20218;-63
2023/10/05 03:57:46;;;;;;;7.13;4.53;;;;;;;;;;5065143;28;20727;-63
2023/10/05 04:00:31;;;;;;;8.10;4.70;;;;;;;;;;5065027;28;20225;-64
2023/10/05 04:02:58;;;;;;;7.40;4.50;;;;;;;;;;5065231;28;20207;-64
2023/10/05 04:05:25;;;;;;;6.63;4.47;;;;;;;;;;5067587;28;20206;-64
2023/10/05 04:07:55;;;;;;;12.87;5.33;;;;;;;;;;5065851;28;20198;-64
2023/10/05 04:10:34;;;;;;;5.87;4.60;;;;;;;;;;5068857;28;20284;-64
2023/10/05 04:13:01;;;;;;;8.60;4.90;;;;;;;;;;5063903;28;20234;-63
2023/10/05 04:15:29;;;;;;;8.03;4.53;;;;;;;;;;5068767;28;20207;-64
2023/10/05 04:17:56;;;;;;;7.20;4.83;;;;;;;;;;5069169;28;20222;-64
2023/10/05 04:20:28;;;;;;;10.70;5.40;;;;;;;;;;5069062;28;20223;-64
2023/10/05 04:22:59;;;;;;;8.00;5.20;;;;;;;;;;5068026;28;20206;-64
2023/10/05 04:25:28;;;;;;;7.13;5.33;;;;;;;;;;5069266;28;20738;-64
2023/10/05 04:27:55;;;;;;;10.57;5.03;;;;;;;;;;5068985;28;20952;-64
2023/10/05 04:30:23;;;;;;;12.97;5.77;;;;;;;;;;5068106;28;20203;-64
2023/10/05 04:32:50;;;;;;;10.47;5.03;;;;;;;;;;5067958;28;20203;-64
2023/10/05 04:35:22;;;;;;;9.77;5.30;;;;;;;;;;5067995;28;20211;-66
2023/10/05 04:37:50;;;;;;;9.43;5.37;;;;;;;;;;5069127;28;20428;-62
2023/10/05 04:40:21;;;;;;;13.17;5.10;;;;;;;;;;5068178;28;20253;-63
2023/10/05 04:42:50;;;;;;;7.20;4.97;;;;;;;;;;5067941;28;20219;-63
2023/10/05 04:45:20;;;;;;;8.13;5.40;;;;;;;;;;5066758;28;20820;-63
2023/10/05 04:47:48;;;;;;;10.13;5.20;;;;;;;;;;5065100;28;20195;-63
2023/10/05 04:50:17;;;;;;;11.37;4.90;;;;;;;;;;5067381;28;20249;-63
2023/10/05 04:52:50;;;;;;;12.07;5.30;;;;;;;;;;5068823;28;20235;-63
2023/10/05 04:55:22;;;;;;;8.80;4.70;;;;;;;;;;5068295;28;20207;-64
2023/10/05 04:57:55;;;;;;;10.37;5.07;;;;;;;;;;5068001;28;20207;-63
2023/10/05 05:03:17;;;;;;;9.63;4.67;;;;;;;;;;5068415;28;20198;-63
2023/10/05 05:06:08;;;;;;;9.97;5.13;;;;;;;;;;5067530;28;20284;-65
2023/10/05 05:08:38;;;;;;;8.27;4.93;;;;;;;;;;5062230;28;20210;-63
2023/10/05 05:11:11;;;;;;;7.17;4.70;;;;;;;;;;5068187;28;20294;-63
2023/10/05 05:13:40;;;;;;;12.30;4.60;;;;;;;;;;5063178;28;20196;-63
2023/10/05 05:16:07;;;;;;;7.97;4.83;;;;;;;;;;5066522;28;20211;-63
2023/10/05 05:18:38;;;;;;;8.00;4.70;;;;;;;;;;5064554;28;20198;-63
2023/10/05 05:21:07;;;;;;;9.13;5.10;;;;;;;;;;5066852;28;20337;-64
2023/10/05 05:23:34;;;;;;;6.30;4.00;;;;;;;;;;5067718;28;20289;-64
2023/10/05 05:26:03;;;;;;;11.03;4.67;;;;;;;;;;5066875;28;20199;-64
2023/10/05 05:28:30;;;;;;;7.53;4.77;;;;;;;;;;5067995;28;20206;-64
2023/10/05 05:31:06;;;;;;;7.90;4.97;;;;;;;;;;5067588;28;20198;-64
2023/10/05 05:33:36;;;;;;;16.20;6.20;;;;;;;;;;5067797;28;20198;-60
2023/10/05 05:36:07;;;;;;;7.23;4.53;;;;;;;;;;5067305;28;20223;-61
2023/10/05 05:38:35;;;;;;;13.83;4.93;;;;;;;;;;5065648;28;20207;-62
2023/10/05 05:41:03;;;;;;;10.80;5.03;;;;;;;;;;5067799;28;20227;-62
2023/10/05 05:43:33;;;;;;;6.20;4.50;;;;;;;;;;5067549;28;20227;-62
2023/10/05 05:46:02;;;;;;;10.10;4.33;;;;;;;;;;5067445;28;20717;-61
2023/10/05 05:48:31;;;;;;;11.60;4.90;;;;;;;;;;5067491;28;20214;-61
2023/10/05 05:51:04;;;;;;;9.77;4.27;;;;;;;;;;5067151;28;20202;-61
2023/10/05 05:53:31;;;;;;;6.27;4.53;;;;;;;;;;5067403;28;20218;-60
2023/10/05 05:56:01;;;;;;;8.03;4.67;;;;;;;;;;5067575;28;20560;-61
2023/10/05 05:58:28;;;;;;;8.57;4.07;;;;;;;;;;5076627;28;20218;-61
2023/10/05 06:00:57;;;;;;;5.03;3.97;;;;;;;;;;5066669;28;20226;-61
2023/10/05 06:03:27;;;;;;;7.90;4.70;;;;;;;;;;5067476;28;20297;-61
2023/10/05 06:05:54;;;;;;;6.87;4.10;;;;;;;;;;5067239;28;20276;-62
2023/10/05 06:08:22;;;;;;;9.17;4.37;;;;;;;;;;5067388;28;20685;-62
2023/10/05 06:10:51;;;;;;;10.43;4.30;;;;;;;;;;5084355;28;20209;-62
2023/10/05 06:13:19;;;;;;;9.70;4.63;;;;;;;;;;5081571;28;20240;-61
2023/10/05 06:15:46;;;;;;;7.73;4.40;;;;;;;;;;5067228;28;20234;-62
2023/10/05 06:18:13;;;;;;;9.77;4.77;;;;;;;;;;5067167;28;20203;-61
2023/10/05 06:20:43;;;;;;;6.23;4.43;;;;;;;;;;5066760;28;20597;-61
2023/10/05 06:23:11;;;;;;;6.27;3.90;;;;;;;;;;5067142;28;20216;-61
2023/10/05 06:25:39;;;;;;;5.67;3.93;;;;;;;;;;5067135;28;20940;-61
2023/10/05 06:28:07;;;;;;;7.23;4.17;;;;;;;;;;5066581;28;20239;-61
2023/10/05 06:30:36;;;;;;;8.70;4.60;;;;;;;;;;5066937;28;21143;-61
2023/10/05 06:33:05;;;;;;;11.00;4.30;;;;;;;;;;5066977;28;20215;-61
2023/10/05 06:35:33;;;;;;;5.23;3.53;;;;;;;;;;5066373;28;20214;-61
2023/10/05 06:38:03;;;;;;;7.97;4.47;;;;;;;;;;5080093;28;20741;-60
2023/10/05 06:40:30;;;;;;;5.63;3.77;;;;;;;;;;5086469;28;20295;-60
2023/10/05 06:42:57;;;;;;;8.20;4.23;;;;;;;;;;5065954;28;20242;-60
2023/10/05 06:45:25;;;;;;;6.70;4.30;;;;;;;;;;5066500;28;20258;-62
2023/10/05 06:47:52;;;;;;;4.60;4.07;;;;;;;;;;5066362;28;20215;-62
2023/10/05 06:50:21;;;;;;;7.13;4.47;;;;;;;;;;5066482;28;20211;-62
2023/10/05 06:52:48;;;;;;;4.67;4.23;;;;;;;;;;5066495;28;20211;-61
2023/10/05 06:55:18;;;;;;;5.90;4.20;;;;;;;;;;5066654;28;20210;-61
2023/10/05 06:57:45;;;;;;;9.17;4.93;;;;;;;;;;5066207;28;20273;-62
2023/10/05 07:00:16;;;;;;;7.63;4.53;;;;;;;;;;5066587;28;20590;-62
2023/10/05 07:02:44;;;;;;;6.07;4.20;;;;;;;;;;5066192;28;20266;-61
2023/10/05 07:05:12;;;;;;;8.57;4.30;;;;;;;;;;5065728;28;20210;-61
2023/10/05 07:07:40;;;;;;;9.67;4.57;;;;;;;;;;5065980;28;20211;-62
2023/10/05 07:10:08;;;;;;;6.27;4.20;;;;;;;;;;5066267;28;20237;-61
2023/10/05 07:12:39;;;;;;;7.53;3.97;;;;;;;;;;5066054;28;20206;-62
2023/10/05 07:15:07;;;;;;;9.40;4.30;;;;;;;;;;5065823;28;20665;-60
2023/10/05 07:17:34;;;;;;;7.73;3.97;;;;;;;;;;5064636;28;20225;-60
2023/10/05 07:20:02;;;;;;;5.73;3.87;;;;;;;;;;5077830;28;20209;-61
2023/10/05 07:22:29;;;;;;;6.40;4.13;;;;;;;;;;5086233;28;20226;-61
2023/10/05 07:24:57;;;;;;;9.57;4.33;;;;;;;;;;5080816;28;20203;-61
2023/10/05 07:27:24;;;;;;;9.23;4.67;;;;;;;;;;5066465;28;20212;-61
2023/10/05 07:29:52;;;;;;;5.93;3.90;;;;;;;;;;5066262;28;20211;-61
2023/10/05 07:32:21;;;;;;;7.10;4.17;;;;;;;;;;5065806;28;20206;-61
2023/10/05 07:34:48;;;;;;;6.60;4.23;;;;;;;;;;5066013;28;20714;-61
2023/10/05 07:37:15;;;;;;;7.40;4.03;;;;;;;;;;5065754;28;20227;-62
2023/10/05 07:39:42;;;;;;;5.37;3.60;;;;;;;;;;5067667;28;20203;-61
2023/10/05 07:42:09;;;;;;;9.07;4.23;;;;;;;;;;5069622;28;20234;-61
2023/10/05 07:44:37;;;;;;;7.53;4.13;;;;;;;;;;5069320;28;20214;-61
2023/10/05 07:47:06;;;;;;;9.50;3.37;;;;;;;;;;5069620;28;20207;-61
2023/10/05 07:49:34;;;;;;;7.27;3.50;;;;;;;;;;5069618;28;20210;-64
2023/10/05 07:52:02;;;;;;;7.13;3.60;;;;;;;;;;5069627;28;20199;-62
2023/10/05 07:54:29;;;;;;;11.33;3.87;;;;;;;;;;5069211;28;20211;-62
2023/10/05 07:56:56;;;;;;;10.20;3.97;;;;;;;;;;5069170;28;20195;-62
2023/10/05 07:59:23;;;;;;;7.37;4.20;;;;;;;;;;5069333;28;20210;-63
2023/10/05 08:01:52;;;;;;;15.57;4.63;;;;;;;;;;5069242;28;20231;-63
2023/10/05 08:04:22;;;;;;;9.03;3.93;;;;;;;;;;5068341;28;20732;-63
2023/10/05 08:06:49;;;;;;;5.03;3.93;;;;;;;;;;5071187;28;20306;-62
2023/10/05 08:09:16;;;;;;;10.10;4.20;;;;;;;;;;5069227;28;20311;-63
2023/10/05 08:11:43;;;;;;;7.37;4.53;;;;;;;;;;5068437;28;20210;-61
2023/10/05 08:14:11;;;;;;;5.50;3.90;;;;;;;;;;5068847;28;20709;-62
2023/10/05 08:16:38;;;;;;;4.60;4.03;;;;;;;;;;5069196;28;20976;-61
2023/10/05 08:19:06;;;;;;;7.77;4.20;;;;;;;;;;5070551;28;20349;-61
2023/10/05 08:21:34;;;;;;;8.80;3.85;;;;;;;;;;5089177;28;20940;-60
2023/10/05 08:24:02;;;;;;;7.00;4.03;;;;;;;;;;5080904;28;20206;-66
2023/10/05 08:26:29;;;;;;;8.20;3.85;;;;;;;;;;5069061;28;20695;-60
2023/10/05 08:28:57;;;;;;;5.03;3.77;;;;;;;;;;5068747;28;20617;-60
2023/10/05 08:31:24;;;;;;;11.83;4.13;;;;;;;;;;5068722;28;20207;-60
2023/10/05 08:33:52;;;;;;;5.28;3.55;;;;;;;;;;5068709;28;20296;-60
2023/10/05 08:36:19;;;;;;;10.02;4.18;;;;;;;;;;5068676;28;20305;-61
2023/10/05 08:38:49;;;;;;;9.30;3.28;;;;;;;;;;5068863;28;20632;-60
2023/10/05 08:41:27;;;;;;;8.70;3.95;;;;;;;;;;5068619;28;20203;-63
2023/10/05 08:43:54;;;;;;;7.93;3.70;;;;;;;;;;5067574;28;20234;-61
2023/10/05 08:46:23;;;;;;;7.15;3.53;;;;;;;;;;5068325;28;20253;-60
2023/10/05 08:48:50;;;;;;;7.10;3.83;;;;;;;;;;5067886;28;20203;-61
2023/10/05 08:51:17;;;;;;;8.27;3.58;;;;;;;;;;5068027;28;20221;-62
2023/10/05 08:53:48;;;;;;;7.68;4.00;;;;;;;;;;5068190;28;20207;-61
2023/10/05 08:56:17;;;;;;;7.13;3.47;;;;;;;;;;5068695;28;20305;-62
2023/10/05 08:58:46;;;;;;;12.32;4.05;;;;;;;;;;5067919;28;20213;-60
2023/10/05 09:01:26;;;;;;;6.22;3.78;;;;;;;;;;5068065;28;20199;-60
2023/10/05 09:04:01;;;;;;;9.20;3.78;;;;;;;;;;5067484;28;20235;-61
2023/10/05 09:06:30;;;;;;;6.10;3.67;;;;;;;;;;5073311;28;20210;-60
2023/10/05 09:09:07;;;;;;;9.18;3.65;;;;;;;;;;5086201;28;20234;-60
2023/10/05 09:11:36;;;;;;;8.95;3.55;;;;;;;;;;5084111;28;20258;-58
2023/10/05 09:14:13;;;;;;;9.40;4.13;;;;;;;;;;5068466;28;20688;-59
2023/10/05 09:16:42;;;;;;;7.72;3.55;;;;;;;;;;5067916;28;20271;-68
2023/10/05 09:19:12;;;;;;;6.88;3.42;;;;;;;;;;5067885;28;20430;-62
2023/10/05 09:22:10;;;;;;;5.82;3.53;;;;;;;;;;5067674;28;20693;-61
2023/10/05 09:24:42;;;;;;;7.75;4.03;;;;;;;;;;5065942;28;20207;-60
2023/10/05 09:27:17;;;;;;;6.60;3.25;;;;;;;;;;5068096;28;20265;-60
2023/10/05 09:29:45;;;;;;;9.30;3.88;;;;;;;;;;5067758;28;20210;-60
2023/10/05 09:32:22;;;;;;;5.22;3.45;;;;;;;;;;5067589;28;20207;-61
2023/10/05 09:34:50;;;;;;;8.00;3.45;;;;;;;;;;5066698;28;20739;-61
2023/10/05 09:37:18;;;;;;;7.03;2.83;;;;;;;;;;5067164;28;20214;-60
2023/10/05 09:39:49;;;;;;;6.18;2.85;;;;;;;;;;5067520;28;20619;-60
2023/10/05 09:42:22;;;;;;;9.18;3.03;;;;;;;;;;5067510;28;20223;-60
2023/10/05 09:44:53;;;;;;;5.82;2.78;;;;;;;;;;5067016;28;20242;-60
2023/10/05 09:47:25;;;;;;;13.18;3.10;;;;;;;;;;5067135;28;20589;-64
2023/10/05 09:49:53;;;;;;;5.90;2.97;;;;;;;;;;5067247;28;20207;-64
2023/10/05 09:52:22;;;;;;;7.72;2.78;;;;;;;;;;5067299;28;20213;-64
2023/10/05 09:54:49;;;;;;;6.25;2.55;;;;;;;;;;5066616;28;20281;-64
2023/10/05 09:57:20;;;;;;;11.73;2.75;;;;;;;;;;5067202;28;20199;-64
2023/10/05 09:59:57;;;;;;;6.30;2.40;;;;;;;;;;5067375;28;20207;-64
2023/10/05 10:02:25;;;;;;;7.13;2.10;;;;;;;;;;5066360;28;20226;-64
2023/10/05 10:04:53;;;;;;;5.35;2.70;;;;;;;;;;5067027;28;20249;-63
2023/10/05 10:07:23;;;;;;;4.45;2.58;;;;;;;;;;5067149;28;20703;-64
2023/10/05 10:09:53;;;;;;;8.45;2.83;;;;;;;;;;5066447;28;20905;-63
2023/10/05 10:12:33;;;;;;;6.38;2.92;;;;;;;;;;5067375;28;20260;-63
2023/10/05 10:15:00;;;;;;;6.60;2.90;;;;;;;;;;5066874;28;20210;-64
2023/10/05 10:17:34;;;;;;;8.57;2.92;;;;;;;;;;5067007;28;20199;-63
2023/10/05 10:20:18;;;;;;;3.90;2.25;;;;;;;;;;5055198;28;20195;-61
2023/10/05 10:22:50;;;;;;;5.00;2.00;;;;;;;;;;5066251;28;20327;-61
2023/10/05 10:25:38;;;;;;;8.45;2.10;;;;;;;;;;5072009;28;20202;-61
2023/10/05 10:28:16;;;;;;;2.78;1.40;;;;;;;;;;5077677;28;20211;-61
2023/10/05 10:30:47;;;;;;;4.32;1.90;;;;;;;;;;5064768;28;20199;-62
2023/10/05 10:33:28;;;;;;;2.85;1.83;;;;;;;;;;5066574;28;20199;-62
2023/10/05 10:35:55;;;;;;;4.38;1.55;;;;;;;;;;5065958;28;20677;-61
2023/10/05 10:38:24;;;;;;;2.70;1.65;;;;;;;;;;5065913;28;20217;-62
2023/10/05 10:41:10;;;;;;;3.60;1.60;;;;;;;;;;5063176;28;20207;-61
2023/10/05 10:43:39;;;;;;;1.60;1.52;;;;;;;;;;5061585;28;20234;-64
2023/10/05 10:46:14;;;;;;;5.35;1.90;;;;;;;;;;5064412;28;20310;-61
2023/10/05 10:48:53;;;;;;;7.53;1.80;;;;;;;;;;5062411;28;20206;-61
2023/10/05 10:51:21;;;;;;;3.65;1.92;;;;;;;;;;5062669;28;20230;-61
2023/10/05 10:53:50;;;;;;;5.18;1.90;;;;;;;;;;5066832;28;20199;-63
2023/10/05 10:56:21;;;;;;;6.30;1.90;;;;;;;;;;5062000;28;20210;-60
2023/10/05 10:58:57;;;;;;;7.07;1.75;;;;;;;;;;5062737;28;20206;-61
2023/10/05 11:01:29;;;;;;;4.75;1.95;;;;;;;;;;5062787;28;20203;-61
2023/10/05 11:03:56;;;;;;;2.83;1.35;;;;;;;;;;5063020;28;20337;-61
2023/10/05 11:06:26;;;;;;;4.15;1.67;;;;;;;;;;5064352;28;20286;-61
2023/10/05 11:08:53;;;;;;;3.25;2.08;;;;;;;;;;5063841;28;20214;-61
2023/10/05 11:11:20;;;;;;;4.18;1.95;;;;;;;;;;5063832;28;20219;-63
2023/10/05 11:13:54;;;;;;;3.17;1.80;;;;;;;;;;5065158;28;20199;-63
2023/10/05 11:16:34;;;;;;;6.93;1.55;;;;;;;;;;5064918;28;20210;-62
2023/10/05 11:19:03;;;;;;;21.33;9.73;;;;;;;;;;5061577;28;20203;-62
2023/10/05 11:21:34;;;;;;;205.90;71.55;;;;;;;;;;5055655;28;20623;-62
2023/10/05 11:24:06;;;;;;;165.38;59.47;;;;;;;;;;5065640;28;20590;-61
2023/10/05 11:26:34;;;;;;;17.63;7.18;;;;;;;;;;5064981;28;20284;-61
2023/10/05 11:29:07;;;;;;;21.65;8.63;;;;;;;;;;5064506;28;20203;-62
2023/10/05 11:31:35;;;;;;;15.32;6.47;;;;;;;;;;5065779;28;20213;-62
2023/10/05 11:34:09;;;;;;;5.72;2.28;;;;;;;;;;5065513;28;20203;-62
2023/10/05 11:36:39;;;;;;;7.25;3.95;;;;;;;;;;5065329;28;20217;-61
2023/10/05 11:39:20;;;;;;;7.43;2.80;;;;;;;;;;5061905;28;20209;-68
2023/10/05 11:41:47;;;;;;;12.57;4.97;;;;;;;;;;5063144;28;20252;-63
2023/10/05 11:44:20;;;;;;;8.15;3.17;;;;;;;;;;5061457;28;20322;-63
2023/10/05 11:46:53;;;;;;;14.93;6.45;;;;;;;;;;5065352;28;20203;-63
2023/10/05 11:49:21;;;;;;;4.07;2.67;;;;;;;;;;5062172;28;20554;-63
2023/10/05 11:51:56;;;;;;;8.10;3.42;;;;;;;;;;5064554;28;20203;-65
2023/10/05 11:54:24;;;;;;;3.60;2.10;;;;;;;;;;5065209;28;20207;-64
2023/10/05 11:56:53;;;;;;;1.77;1.58;;;;;;;;;;5059708;28;20298;-65
2023/10/05 11:59:27;;;;;;;6.43;1.90;;;;;;;;;;5049767;28;20590;-64
2023/10/05 12:01:55;;;;;;;3.40;1.70;;;;;;;;;;5065488;28;20285;-63
2023/10/05 12:04:23;;;;;;;1.60;1.50;;;;;;;;;;5065130;28;20238;-64
2023/10/05 12:06:58;;;;;;;5.03;2.70;;;;;;;;;;5064871;28;20297;-64
2023/10/05 12:09:30;;;;;;;6.75;3.15;;;;;;;;;;5058583;28;20211;-63
2023/10/05 12:11:58;;;;;;;6.07;2.70;;;;;;;;;;5065527;28;20850;-64
2023/10/05 12:14:26;;;;;;;5.35;2.90;;;;;;;;;;5064159;28;20203;-63
2023/10/05 12:16:56;;;;;;;4.38;2.53;;;;;;;;;;5067031;28;20223;-64
2023/10/05 12:19:28;;;;;;;6.53;3.17;;;;;;;;;;5063235;28;20207;-64
2023/10/05 12:21:56;;;;;;;2.15;1.90;;;;;;;;;;5064426;28;20298;-63
2023/10/05 12:24:23;;;;;;;6.22;1.98;;;;;;;;;;5063726;28;21987;-62
2023/10/05 12:26:50;;;;;;;2.38;2.15;;;;;;;;;;5067155;28;20619;-63
2023/10/05 12:29:18;;;;;;;3.28;2.17;;;;;;;;;;5066985;28;20329;-64
2023/10/05 12:31:46;;;;;;;4.35;1.95;;;;;;;;;;5069726;28;20223;-63
2023/10/05 12:34:15;;;;;;;5.85;2.22;;;;;;;;;;5065595;28;20215;-63
2023/10/05 12:36:45;;;;;;;2.83;1.95;;;;;;;;;;5080592;28;20198;-63
2023/10/05 12:39:14;;;;;;;4.22;1.50;;;;;;;;;;5088251;28;20202;-63
2023/10/05 12:41:41;;;;;;;2.78;1.30;;;;;;;;;;5088626;28;20652;-65
2023/10/05 12:44:13;;;;;;;1.92;1.20;;;;;;;;;;5088675;28;20277;-65
2023/10/05 12:46:40;;;;;;;4.18;1.45;;;;;;;;;;5087936;28;20242;-63
2023/10/05 12:49:08;;;;;;;2.15;1.42;;;;;;;;;;5088171;28;20210;-63
2023/10/05 12:51:35;;;;;;;2.75;1.40;;;;;;;;;;5088323;28;20214;-63
2023/10/05 12:54:08;;;;;;;3.97;1.55;;;;;;;;;;5079175;28;20203;-65
2023/10/05 12:56:38;;;;;;;2.42;1.30;;;;;;;;;;5067708;28;20241;-63
2023/10/05 12:59:07;;;;;;;3.15;1.20;;;;;;;;;;5067520;28;20207;-63
2023/10/05 13:01:35;;;;;;;1.25;1.20;;;;;;;;;;5068156;28;20494;-63
2023/10/05 13:04:05;;;;;;;2.28;1.23;;;;;;;;;;5067957;28;20912;-65
2023/10/05 13:06:32;;;;;;;5.13;1.63;;;;;;;;;;5067199;28;20213;-63
2023/10/05 13:09:02;;;;;;;4.88;1.60;;;;;;;;;;5067841;28;20272;-63
2023/10/05 13:11:31;;;;;;;6.28;1.30;;;;;;;;;;5068002;28;20302;-65
2023/10/05 13:13:59;;;;;;;1.73;1.10;;;;;;;;;;5067769;28;20294;-62
2023/10/05 13:16:28;;;;;;;2.05;1.10;;;;;;;;;;5067603;28;20715;-65
2023/10/05 13:18:55;;;;;;;4.15;1.35;;;;;;;;;;5086225;28;20221;-65
2023/10/05 13:21:22;;;;;;;1.77;1.13;;;;;;;;;;5087720;28;20211;-63
2023/10/05 13:23:54;;;;;;;3.95;1.58;;;;;;;;;;5087485;28;20233;-64
2023/10/05 13:26:22;;;;;;;5.72;1.23;;;;;;;;;;5084998;28;20212;-63
2023/10/05 13:28:50;;;;;;;4.95;1.52;;;;;;;;;;5086677;28;20232;-64
2023/10/05 13:31:20;;;;;;;3.55;1.23;;;;;;;;;;5087309;28;20231;-64
2023/10/05 13:33:48;;;;;;;3.67;1.35;;;;;;;;;;5083902;28;20570;-63
2023/10/05 13:36:15;;;;;;;5.20;1.40;;;;;;;;;;5077351;28;20697;-63
2023/10/05 13:38:43;;;;;;;3.33;1.50;;;;;;;;;;5066350;28;20219;-63
2023/10/05 13:41:18;;;;;;;2.30;1.42;;;;;;;;;;5070218;28;21017;-63
2023/10/05 13:43:47;;;;;;;8.43;1.65;;;;;;;;;;5080776;28;20714;-64
2023/10/05 13:46:18;;;;;;;1.52;1.42;;;;;;;;;;5066837;28;20292;-64
2023/10/05 13:48:46;;;;;;;2.45;1.33;;;;;;;;;;5067568;28;20222;-62
2023/10/05 13:51:16;;;;;;;4.07;1.00;;;;;;;;;;5064041;28;20855;-63
2023/10/05 13:53:44;;;;;;;3.15;1.40;;;;;;;;;;5055789;28;20685;-63
2023/10/05 13:56:12;;;;;;;3.72;1.17;;;;;;;;;;5064275;28;20206;-63
2023/10/05 13:58:41;;;;;;;1.23;1.13;;;;;;;;;;5064335;28;20218;-64
2023/10/05 14:01:12;;;;;;;1.77;1.10;;;;;;;;;;5071375;28;20218;-61
2023/10/05 14:03:42;;;;;;;3.63;1.40;;;;;;;;;;5067416;28;20238;-62
2023/10/05 14:06:09;;;;;;;3.58;1.02;;;;;;;;;;5068384;28;20210;-62
2023/10/05 14:08:36;;;;;;;2.83;1.50;;;;;;;;;;5084058;28;20219;-61
2023/10/05 14:11:04;;;;;;;4.53;1.25;;;;;;;;;;5075744;28;20206;-61
2023/10/05 14:13:31;;;;;;;2.15;1.10;;;;;;;;;;5069835;28;20213;-62
2023/10/05 14:16:00;;;;;;;3.40;0.88;;;;;;;;;;5064636;28;20279;-62
2023/10/05 14:18:28;;;;;;;4.47;1.10;;;;;;;;;;5084342;28;20267;-61
2023/10/05 14:20:56;;;;;;;2.72;0.98;;;;;;;;;;5073120;28;20210;-61
2023/10/05 14:23:24;;;;;;;4.88;1.30;;;;;;;;;;5064197;28;20230;-61
2023/10/05 14:25:51;;;;;;;2.75;1.42;;;;;;;;;;5067393;28;20207;-61
2023/10/05 14:28:20;;;;;;;1.45;0.85;;;;;;;;;;5083338;28;20202;-62
2023/10/05 14:30:49;;;;;;;6.60;1.17;;;;;;;;;;5073586;28;20293;-61
2023/10/05 14:33:17;;;;;;;7.85;1.38;;;;;;;;;;5084427;28;20210;-62
2023/10/05 14:35:44;;;;;;;4.70;1.45;;;;;;;;;;5078838;28;20223;-62
2023/10/05 14:38:15;;;;;;;2.72;1.10;;;;;;;;;;5063242;28;20214;-62
2023/10/05 14:40:42;;;;;;;3.88;1.45;;;;;;;;;;5062931;28;20252;-61
2023/10/05 14:43:12;;;;;;;2.85;1.75;;;;;;;;;;5063614;28;20309;-61
2023/10/05 14:45:45;;;;;;;2.85;1.50;;;;;;;;;;5063008;28;20226;-62
2023/10/05 14:48:14;;;;;;;1.55;1.02;;;;;;;;;;5063592;28;20214;-61
2023/10/05 14:50:41;;;;;;;3.17;1.38;;;;;;;;;;5063761;28;20272;-61
2023/10/05 14:53:11;;;;;;;1.85;1.50;;;;;;;;;;5063732;28;20210;-60
2023/10/05 14:55:41;;;;;;;3.30;1.50;;;;;;;;;;5063815;28;20203;-61
2023/10/05 14:58:08;;;;;;;4.88;1.38;;;;;;;;;;5063433;28;20211;-60
2023/10/05 15:00:36;;;;;;;2.90;1.52;;;;;;;;;;5065201;28;20222;-61